Time;durP1;ratioP1;P1;durP2;ratioP2;P2;SDS_P1;SDS_P2;PMS_P1;PMS_P2;Temp;Humidity;BMP_temperature;BMP_pressure;BME280_temperature;BME280_humidity;BME280_pressure;Samples;Min_cycle;Max_cycle;Signal;HPM_P1;HPM_P2
2022/08/06 00:01:52;;;;;;;;;;;;;;;19.39;72.46;100088.01;1450063;89;20842;-87
2022/08/06 00:04:19;;;;;;;;;;;;;;;19.45;72.80;100087.67;1455571;89;20249;-88
2022/08/06 00:06:48;;;;;;;;;;;;;;;19.49;73.48;100084.03;1450545;90;20352;-89
2022/08/06 00:09:15;;;;;;;;;;;;;;;19.54;72.23;100085.56;1446041;89;20827;-88
2022/08/06 00:11:42;;;;;;;;;;;;;;;19.56;71.73;100080.78;1457062;90;20404;-88
2022/08/06 00:14:09;;;;;;;;;;;;;;;19.60;73.46;100079.33;1459319;90;20385;-87
2022/08/06 00:16:36;;;;;;;;;;;;;;;19.60;73.12;100082.02;1443222;90;21250;-88
2022/08/06 00:19:03;;;;;;;;;;;;;;;19.61;72.78;100076.94;1456859;90;20339;-87
2022/08/06 00:21:30;;;;;;;;;;;;;;;19.60;73.53;100079.33;1456729;89;20285;-88
2022/08/06 00:23:57;;;;;;;;;;;;;;;19.57;73.31;100081.92;1447609;90;20422;-88
2022/08/06 00:26:24;;;;;;;;;;;;;;;19.58;73.31;100081.40;1462078;90;20241;-88
2022/08/06 00:28:51;;;;;;;;;;;;;;;19.59;72.57;100078.52;1438706;90;20249;-88
2022/08/06 00:31:18;;;;;;;;;;;;;;;19.59;73.26;100077.67;1451400;90;20315;-88
2022/08/06 00:33:45;;;;;;;;;;;;;;;19.58;72.84;100082.74;1447586;89;20286;-87
2022/08/06 00:36:12;;;;;;;;;;;;;;;19.58;71.88;100085.42;1451084;90;20235;-89
2022/08/06 00:38:38;;;;;;;;;;;;;;;19.58;72.17;100082.22;1450263;89;20315;-88
2022/08/06 00:41:05;;;;;;;;;;;;;;;19.58;72.21;100086.24;1447304;90;20576;-87
2022/08/06 00:43:32;;;;;;;;;;;;;;;19.60;72.86;100084.70;1459433;89;20863;-87
2022/08/06 00:45:59;;;;;;;;;;;;;;;19.58;71.90;100083.56;1463915;89;20404;-89
2022/08/06 00:48:26;;;;;;;;;;;;;;;19.57;71.71;100079.77;1435534;90;20367;-88
2022/08/06 00:50:53;;;;;;;;;;;;;;;19.53;72.85;100083.90;1449586;90;20390;-88
2022/08/06 00:53:20;;;;;;;;;;;;;;;19.49;73.54;100086.72;1453913;90;20451;-88
2022/08/06 00:55:46;;;;;;;;;;;;;;;19.39;73.91;100094.72;1455308;89;20397;-88
2022/08/06 00:58:13;;;;;;;;;;;;;;;19.28;74.27;100091.36;1454208;89;20354;-88
2022/08/06 01:00:40;;;;;;;;;;;;;;;19.23;73.92;100095.71;1452650;90;20278;-88
2022/08/06 01:03:07;;;;;;;;;;;;;;;19.14;74.46;100097.80;1453050;89;20314;-88
2022/08/06 01:05:34;;;;;;;;;;;;;;;19.03;74.21;100099.28;1455156;89;20263;-87
2022/08/06 01:08:01;;;;;;;;;;;;;;;18.87;74.43;100098.38;1451010;90;20345;-88
2022/08/06 01:10:28;;;;;;;;;;;;;;;18.73;74.72;100096.23;1458933;89;20393;-87
2022/08/06 01:12:55;;;;;;;;;;;;;;;18.66;75.84;100091.39;1454923;89;20406;-88
2022/08/06 01:15:22;;;;;;;;;;;;;;;18.60;74.42;100091.70;1454853;90;20866;-87
2022/08/06 01:17:58;;;;;;;;;;;;;;;18.59;75.60;100089.25;1452867;90;20278;-87
2022/08/06 01:20:46;;;;;;;;;;;;;;;18.57;75.74;100092.13;1449783;89;20917;-87
2022/08/06 01:23:45;;;;;;;;;;;;;;;18.57;75.56;100089.44;1457021;89;20293;-87
2022/08/06 01:26:32;;;;;;;;;;;;;;;18.54;77.10;100091.20;1444873;90;20235;-88
2022/08/06 01:29:10;;;;;;;;;;;;;;;18.47;77.26;100091.22;1452845;90;20352;-87
2022/08/06 01:31:53;;;;;;;;;;;;;;;18.43;76.88;100090.48;1435717;90;20307;-87
2022/08/06 01:34:27;;;;;;;;;;;;;;;18.43;76.85;100095.84;1457983;88;20256;-88
2022/08/06 01:37:16;;;;;;;;;;;;;;;18.43;76.90;100091.30;1447018;90;20811;-87
2022/08/06 01:39:45;;;;;;;;;;;;;;;18.42;77.33;100088.33;1452410;90;21373;-88
2022/08/06 01:42:14;;;;;;;;;;;;;;;18.43;76.05;100085.95;1445043;89;20300;-88
2022/08/06 01:44:43;;;;;;;;;;;;;;;18.48;76.36;100085.33;1450246;89;20375;-87
2022/08/06 01:47:12;;;;;;;;;;;;;;;18.51;77.54;100088.12;1457109;89;20285;-88
2022/08/06 01:49:42;;;;;;;;;;;;;;;18.48;78.04;100079.97;1454351;90;20850;-87
2022/08/06 01:52:10;;;;;;;;;;;;;;;18.48;77.58;100078.11;1458287;90;20345;-86
2022/08/06 01:54:40;;;;;;;;;;;;;;;18.47;78.07;100077.81;1450815;89;20285;-87
2022/08/06 01:57:07;;;;;;;;;;;;;;;18.49;77.93;100085.63;1453327;89;20769;-86
2022/08/06 01:59:36;;;;;;;;;;;;;;;18.48;77.14;100083.99;1441587;90;20300;-87
2022/08/06 02:02:06;;;;;;;;;;;;;;;18.49;77.15;100082.43;1454743;90;20264;-86
2022/08/06 02:04:37;;;;;;;;;;;;;;;18.52;78.68;100083.05;1461475;90;20337;-87
2022/08/06 02:07:07;;;;;;;;;;;;;;;18.45;78.41;100083.89;1456188;89;20249;-87
2022/08/06 02:09:35;;;;;;;;;;;;;;;18.40;78.44;100090.38;1449002;90;20805;-87
2022/08/06 02:12:06;;;;;;;;;;;;;;;18.36;78.23;100087.00;1450964;90;20220;-87
2022/08/06 02:14:39;;;;;;;;;;;;;;;18.28;78.24;100090.70;1450510;90;21017;-87
2022/08/06 02:17:06;;;;;;;;;;;;;;;18.17;78.64;100087.30;1449953;89;20382;-87
2022/08/06 02:19:34;;;;;;;;;;;;;;;18.02;78.69;100086.16;1448620;89;20428;-87
2022/08/06 02:22:02;;;;;;;;;;;;;;;17.92;78.89;100081.70;1455111;89;20285;-87
2022/08/06 02:24:31;;;;;;;;;;;;;;;17.90;79.43;100088.61;1454592;90;20820;-87
2022/08/06 02:27:00;;;;;;;;;;;;;;;17.83;80.76;100086.42;1462866;89;20865;-87
2022/08/06 02:29:27;;;;;;;;;;;;;;;17.79;81.13;100091.88;1460943;89;20806;-86
2022/08/06 02:31:54;;;;;;;;;;;;;;;17.76;80.61;100084.23;1447256;89;20337;-87
2022/08/06 02:34:22;;;;;;;;;;;;;;;17.75;80.83;100088.77;1456443;90;20293;-87
2022/08/06 02:37:04;;;;;;;;;;;;;;;17.73;80.41;100087.31;1453596;89;20286;-87
2022/08/06 02:39:44;;;;;;;;;;;;;;;17.74;79.60;100083.59;1450362;89;20322;-88
2022/08/06 02:42:14;;;;;;;;;;;;;;;17.78;80.34;100084.86;1456876;90;20338;-88
2022/08/06 02:44:51;;;;;;;;;;;;;;;17.81;79.75;100074.59;1459295;90;20307;-88
2022/08/06 02:47:38;;;;;;;;;;;;;;;17.81;79.82;100076.45;1433618;90;20323;-88
2022/08/06 02:50:06;;;;;;;;;;;;;;;17.84;79.13;100080.55;1448861;90;20418;-88
2022/08/06 02:52:41;;;;;;;;;;;;;;;17.83;81.31;100081.07;1455795;89;20932;-88
2022/08/06 02:55:14;;;;;;;;;;;;;;;17.81;79.68;100085.83;1440120;90;20307;-87
2022/08/06 02:57:44;;;;;;;;;;;;;;;17.83;80.90;100078.39;1434215;90;20320;-88
2022/08/06 03:00:12;;;;;;;;;;;;;;;17.78;81.39;100083.03;1456358;90;20308;-88
2022/08/06 03:02:41;;;;;;;;;;;;;;;17.76;82.93;100078.88;1452839;90;20396;-87
2022/08/06 03:05:11;;;;;;;;;;;;;;;17.75;81.85;100082.56;1453678;89;21232;-87
2022/08/06 03:07:39;;;;;;;;;;;;;;;17.74;82.87;100084.94;1448930;90;20414;-87
2022/08/06 03:10:08;;;;;;;;;;;;;;;17.73;83.54;100084.64;1437712;90;20322;-88
2022/08/06 03:12:37;;;;;;;;;;;;;;;17.73;83.31;100089.99;1444474;90;20330;-88
2022/08/06 03:15:05;;;;;;;;;;;;;;;17.69;83.24;100085.53;1447054;90;20337;-87
2022/08/06 03:17:33;;;;;;;;;;;;;;;17.71;82.82;100090.70;1445736;90;20234;-88
2022/08/06 03:20:01;;;;;;;;;;;;;;;17.70;82.98;100089.06;1442771;90;20285;-88
2022/08/06 03:22:29;;;;;;;;;;;;;;;17.70;82.17;100091.73;1453925;90;20807;-88
2022/08/06 03:24:56;;;;;;;;;;;;;;;17.69;83.07;100088.73;1440597;90;20308;-88
2022/08/06 03:27:24;;;;;;;;;;;;;;;17.69;83.10;100096.76;1431380;90;20293;-87
2022/08/06 03:29:51;;;;;;;;;;;;;;;17.71;81.54;100086.68;1447470;90;20308;-88
2022/08/06 03:32:19;;;;;;;;;;;;;;;17.73;82.05;100085.45;1443838;90;20330;-87
2022/08/06 03:34:47;;;;;;;;;;;;;;;17.77;81.00;100085.87;1447042;90;20909;-87
2022/08/06 03:37:17;;;;;;;;;;;;;;;17.81;80.94;100087.16;1448375;90;20301;-88
2022/08/06 03:39:45;;;;;;;;;;;;;;;17.85;80.67;100088.91;1445563;90;20293;-88
2022/08/06 03:42:12;;;;;;;;;;;;;;;17.88;80.58;100086.64;1449990;90;20308;-88
2022/08/06 03:44:39;;;;;;;;;;;;;;;17.91;81.37;100083.56;1443630;90;20309;-88
2022/08/06 03:47:24;;;;;;;;;;;;;;;17.95;80.78;100075.45;1429629;90;20322;-87
2022/08/06 03:50:03;;;;;;;;;;;;;;;18.01;80.84;100077.30;1450487;90;20454;-88
2022/08/06 03:52:33;;;;;;;;;;;;;;;18.07;80.85;100070.30;1443614;90;20272;-88
2022/08/06 03:55:03;;;;;;;;;;;;;;;18.17;80.68;100075.23;1433423;90;21090;-87
2022/08/06 03:57:34;;;;;;;;;;;;;;;18.25;79.73;100076.38;1442298;90;20344;-89
2022/08/06 04:00:01;;;;;;;;;;;;;;;18.34;79.85;100077.81;1449136;89;20783;-88
2022/08/06 04:02:32;;;;;;;;;;;;;;;18.40;79.82;100081.00;1446698;90;20398;-88
2022/08/06 04:05:00;;;;;;;;;;;;;;;18.41;80.54;100085.34;1448456;89;20404;-87
2022/08/06 04:07:28;;;;;;;;;;;;;;;18.45;80.39;100087.91;1441634;90;20234;-86
2022/08/06 04:09:55;;;;;;;;;;;;;;;18.51;80.18;100089.45;1453934;90;20300;-87
2022/08/06 04:12:22;;;;;;;;;;;;;;;18.56;80.03;100090.48;1441506;90;20300;-87
2022/08/06 04:14:50;;;;;;;;;;;;;;;18.63;79.83;100095.83;1426809;90;20390;-88
2022/08/06 04:17:17;;;;;;;;;;;;;;;18.72;79.35;100098.59;1445432;90;20315;-87
2022/08/06 04:19:45;;;;;;;;;;;;;;;18.81;78.67;100097.36;1444787;90;20294;-88
2022/08/06 04:22:12;;;;;;;;;;;;;;;18.92;78.36;100098.06;1446364;90;20293;-87
2022/08/06 04:24:40;;;;;;;;;;;;;;;19.03;77.88;100094.44;1447687;90;20315;-88
2022/08/06 04:27:08;;;;;;;;;;;;;;;19.10;77.91;100105.95;1442110;90;20393;-87
2022/08/06 04:29:37;;;;;;;;;;;;;;;19.14;78.45;100109.36;1452440;90;20360;-87
2022/08/06 04:32:05;;;;;;;;;;;;;;;19.10;77.69;100112.66;1438180;90;20353;-87
2022/08/06 04:34:33;;;;;;;;;;;;;;;19.06;77.62;100113.61;1452582;90;20867;-87
2022/08/06 04:37:00;;;;;;;;;;;;;;;19.07;77.24;100117.11;1445828;90;20301;-87
2022/08/06 04:39:28;;;;;;;;;;;;;;;19.17;77.27;100114.81;1447611;90;20278;-87
2022/08/06 04:41:56;;;;;;;;;;;;;;;19.27;76.96;100111.16;1451392;90;20300;-88
2022/08/06 04:44:23;;;;;;;;;;;;;;;19.41;76.79;100119.98;1441365;90;20360;-87
2022/08/06 04:46:50;;;;;;;;;;;;;;;19.53;76.12;100109.39;1439567;90;20272;-87
2022/08/06 04:49:17;;;;;;;;;;;;;;;19.64;76.41;100106.56;1448058;90;20397;-87
2022/08/06 04:51:47;;;;;;;;;;;;;;;19.69;75.57;100111.63;1450099;90;20385;-87
2022/08/06 04:54:16;;;;;;;;;;;;;;;19.80;75.58;100110.95;1451856;90;20264;-87
2022/08/06 04:56:43;;;;;;;;;;;;;;;19.92;75.53;100111.08;1449013;90;20285;-88
2022/08/06 04:59:11;;;;;;;;;;;;;;;20.03;74.97;100113.59;1444901;90;20277;-88
2022/08/06 05:01:38;;;;;;;;;;;;;;;20.10;74.26;100117.57;1442301;90;20286;-87
2022/08/06 05:04:05;;;;;;;;;;;;;;;20.19;74.61;100115.73;1446700;90;20278;-87
2022/08/06 05:06:44;;;;;;;;;;;;;;;20.31;74.27;100119.06;1445279;90;20338;-87
2022/08/06 05:09:14;;;;;;;;;;;;;;;20.43;73.69;100118.67;1437657;89;20814;-87
2022/08/06 05:11:43;;;;;;;;;;;;;;;20.58;73.46;100119.18;1443828;90;20307;-84
2022/08/06 05:14:24;;;;;;;;;;;;;;;20.73;73.12;100119.65;1452993;90;20367;-84
2022/08/06 05:16:52;;;;;;;;;;;;;;;20.89;72.29;100120.14;1448579;90;20323;-84
2022/08/06 05:19:28;;;;;;;;;;;;;;;21.01;71.60;100115.66;1444003;90;20250;-83
2022/08/06 05:21:57;;;;;;;;;;;;;;;21.12;70.80;100117.60;1451704;89;20285;-82
2022/08/06 05:24:24;;;;;;;;;;;;;;;21.24;69.94;100122.23;1452749;90;20307;-82
2022/08/06 05:26:52;;;;;;;;;;;;;;;21.30;69.33;100132.09;1451769;90;20314;-82
2022/08/06 05:29:20;;;;;;;;;;;;;;;21.44;69.95;100134.96;1442880;90;20286;-82
2022/08/06 05:31:47;;;;;;;;;;;;;;;21.58;69.99;100141.01;1449675;90;20315;-84
2022/08/06 05:34:14;;;;;;;;;;;;;;;21.72;69.59;100138.44;1439597;89;20316;-82
2022/08/06 05:36:41;;;;;;;;;;;;;;;21.89;68.95;100140.47;1452088;89;20287;-82
2022/08/06 05:39:08;;;;;;;;;;;;;;;21.99;68.56;100128.63;1444765;90;20300;-82
2022/08/06 05:41:35;;;;;;;;;;;;;;;22.18;68.26;100141.52;1452839;90;20300;-82
2022/08/06 05:44:02;;;;;;;;;;;;;;;22.23;64.83;100135.73;1450863;89;20244;-82
2022/08/06 05:46:51;;;;;;;;;;;;;;;22.27;64.75;100128.84;1449428;89;20389;-82
2022/08/06 05:49:28;;;;;;;;;;;;;;;22.38;64.44;100131.77;1450485;89;20293;-82
2022/08/06 05:52:01;;;;;;;;;;;;;;;22.50;64.59;100129.94;1450040;89;20294;-82
2022/08/06 05:54:50;;;;;;;;;;;;;;;22.59;63.03;100132.58;1444522;90;20421;-82
2022/08/06 05:57:33;;;;;;;;;;;;;;;22.75;63.45;100140.48;1444576;90;20360;-82
2022/08/06 06:00:07;;;;;;;;;;;;;;;22.88;61.92;100134.04;1448975;90;20339;-83
2022/08/06 06:02:32;;;;;;;;;;;;;;;23.05;62.23;100142.27;1449072;90;20386;-84
2022/08/06 06:04:59;;;;;;;;;;;;;;;23.11;60.66;100140.79;1443027;89;20881;-83
2022/08/06 06:07:27;;;;;;;;;;;;;;;23.25;61.17;100140.01;1438658;89;20931;-83
2022/08/06 06:09:55;;;;;;;;;;;;;;;23.41;61.21;100138.42;1449571;89;20227;-84
2022/08/06 06:12:23;;;;;;;;;;;;;;;23.59;61.63;100140.12;1441444;89;20285;-83
2022/08/06 06:14:50;;;;;;;;;;;;;;;23.75;59.77;100135.34;1438192;90;20353;-83
2022/08/06 06:17:24;;;;;;;;;;;;;;;23.92;58.30;100138.63;1430042;90;20796;-83
2022/08/06 06:20:06;;;;;;;;;;;;;;;24.03;58.40;100128.30;1450046;90;20257;-84
2022/08/06 06:22:43;;;;;;;;;;;;;;;24.21;59.06;100136.17;1444658;89;20294;-83
2022/08/06 06:25:13;;;;;;;;;;;;;;;24.35;56.06;100131.27;1437445;90;21532;-83
2022/08/06 06:27:47;;;;;;;;;;;;;;;24.49;57.89;100133.14;1447628;90;20349;-84
2022/08/06 06:30:17;;;;;;;;;;;;;;;24.67;58.52;100128.00;1445967;90;20315;-83
2022/08/06 06:33:05;;;;;;;;;;;;;;;24.87;57.04;100134.25;1452598;90;20413;-84
2022/08/06 06:35:38;;;;;;;;;;;;;;;25.05;58.19;100127.17;1456891;90;20280;-83
2022/08/06 06:38:18;;;;;;;;;;;;;;;25.25;58.05;100124.48;1434818;90;20278;-83
2022/08/06 06:41:00;;;;;;;;;;;;;;;25.37;56.94;100126.52;1440631;89;20293;-84
2022/08/06 06:43:31;;;;;;;;;;;;;;;25.50;54.00;100127.50;1443453;90;20925;-84
2022/08/06 06:46:04;;;;;;;;;;;;;;;25.63;54.96;100124.38;1449988;90;20319;-83
2022/08/06 06:48:50;;;;;;;;;;;;;;;25.71;53.24;100127.19;1444975;88;20330;-84
2022/08/06 06:51:29;;;;;;;;;;;;;;;25.74;53.55;100119.89;1439658;90;20354;-84
2022/08/06 06:53:56;;;;;;;;;;;;;;;25.92;55.31;100121.45;1450302;90;20286;-83
2022/08/06 06:56:33;;;;;;;;;;;;;;;26.10;53.96;100121.09;1449377;89;20220;-84
2022/08/06 06:59:09;;;;;;;;;;;;;;;26.17;53.07;100114.09;1438703;90;20748;-84
2022/08/06 07:01:36;;;;;;;;;;;;;;;26.32;54.24;100122.89;1438813;89;20241;-84
2022/08/06 07:04:08;;;;;;;;;;;;;;;26.50;53.12;100125.80;1444753;89;20324;-84
2022/08/06 07:06:37;;;;;;;;;;;;;;;26.55;52.93;100119.84;1446269;89;20792;-83
2022/08/06 07:09:05;;;;;;;;;;;;;;;26.65;51.78;100122.37;1452457;90;20322;-84
2022/08/06 07:11:32;;;;;;;;;;;;;;;26.69;51.58;100128.35;1435401;90;20433;-84
2022/08/06 07:14:00;;;;;;;;;;;;;;;26.88;53.30;100132.83;1453920;89;20374;-84
2022/08/06 07:16:28;;;;;;;;;;;;;;;26.98;51.12;100134.22;1451607;90;20308;-84
2022/08/06 07:18:55;;;;;;;;;;;;;;;27.06;51.22;100131.56;1444967;90;20360;-83
2022/08/06 07:21:22;;;;;;;;;;;;;;;27.23;51.95;100135.47;1458215;90;20227;-83
2022/08/06 07:23:51;;;;;;;;;;;;;;;27.42;52.02;100138.00;1449344;90;21131;-83
2022/08/06 07:26:21;;;;;;;;;;;;;;;27.60;50.14;100138.05;1464862;89;20746;-83
2022/08/06 07:28:49;;;;;;;;;;;;;;;27.75;50.38;100136.47;1452812;90;20308;-84
2022/08/06 07:31:17;;;;;;;;;;;;;;;27.92;49.77;100134.35;1452282;90;20263;-84
2022/08/06 07:33:45;;;;;;;;;;;;;;;28.11;50.63;100138.73;1461447;89;20393;-84
2022/08/06 07:36:17;;;;;;;;;;;;;;;28.26;50.20;100136.02;1452629;89;20286;-84
2022/08/06 07:38:46;;;;;;;;;;;;;;;28.42;49.29;100132.76;1459632;90;20301;-84
2022/08/06 07:41:14;;;;;;;;;;;;;;;28.55;48.57;100138.20;1451449;90;20308;-84
2022/08/06 07:43:44;;;;;;;;;;;;;;;28.72;48.85;100134.64;1451926;89;20868;-84
2022/08/06 07:46:14;;;;;;;;;;;;;;;28.85;46.47;100137.88;1455547;90;20390;-84
2022/08/06 07:48:45;;;;;;;;;;;;;;;28.77;44.70;100134.64;1453915;90;20293;-84
2022/08/06 07:51:13;;;;;;;;;;;;;;;28.75;45.33;100140.90;1447866;90;20826;-84
2022/08/06 07:53:40;;;;;;;;;;;;;;;28.76;45.37;100142.52;1457411;90;20353;-84
2022/08/06 07:56:09;;;;;;;;;;;;;;;28.97;46.91;100141.95;1449827;89;20887;-83
2022/08/06 07:58:37;;;;;;;;;;;;;;;29.00;43.89;100143.27;1449348;89;20485;-84
2022/08/06 08:01:05;;;;;;;;;;;;;;;29.04;43.86;100141.67;1453547;90;20402;-84
2022/08/06 08:06:22;;;;;;;;;;;;;;;29.31;43.74;100152.20;1442173;90;20286;-84
2022/08/06 08:09:01;;;;;;;;;;;;;;;29.42;43.92;100140.70;1446259;90;20338;-84
2022/08/06 08:11:30;;;;;;;;;;;;;;;29.51;42.32;100145.84;1449112;90;20791;-84
2022/08/06 08:14:00;;;;;;;;;;;;;;;29.63;41.65;100144.98;1452555;90;21406;-84
2022/08/06 08:16:26;;;;;;;;;;;;;;;29.77;42.67;100149.83;1452120;90;20305;-84
2022/08/06 08:18:54;;;;;;;;;;;;;;;29.80;41.00;100146.53;1456535;90;20345;-83
2022/08/06 08:21:22;;;;;;;;;;;;;;;29.93;41.31;100138.28;1459298;90;20330;-84
2022/08/06 08:23:50;;;;;;;;;;;;;;;30.14;43.57;100143.28;1454865;90;21473;-84
2022/08/06 08:26:17;;;;;;;;;;;;;;;30.33;42.30;100139.36;1443599;90;20933;-84
2022/08/06 08:28:43;;;;;;;;;;;;;;;30.47;41.36;100143.61;1448274;90;20278;-84
2022/08/06 08:31:13;;;;;;;;;;;;;;;30.58;40.55;100143.78;1452910;89;20338;-84
2022/08/06 08:33:40;;;;;;;;;;;;;;;30.73;40.78;100141.45;1448899;90;20300;-84
2022/08/06 08:36:09;;;;;;;;;;;;;;;30.75;39.09;100149.34;1450672;89;20241;-84
2022/08/06 08:38:36;;;;;;;;;;;;;;;30.95;39.97;100149.14;1463725;90;20329;-84
2022/08/06 08:41:06;;;;;;;;;;;;;;;31.13;41.18;100152.23;1457507;90;20326;-84
2022/08/06 08:43:39;;;;;;;;;;;;;;;31.27;40.01;100144.95;1455727;90;20293;-84
2022/08/06 08:46:08;;;;;;;;;;;;;;;31.11;38.48;100147.62;1453747;90;20256;-84
2022/08/06 08:48:36;;;;;;;;;;;;;;;31.17;39.18;100147.83;1447484;90;20409;-84
2022/08/06 08:51:03;;;;;;;;;;;;;;;31.35;40.34;100150.33;1452951;90;20293;-84
2022/08/06 08:53:33;;;;;;;;;;;;;;;31.49;39.13;100147.73;1455563;90;20351;-84
2022/08/06 08:56:02;;;;;;;;;;;;;;;31.52;37.51;100152.05;1450483;90;20792;-85
2022/08/06 08:58:31;;;;;;;;;;;;;;;31.64;37.75;100150.25;1450030;89;20309;-85
2022/08/06 09:00:59;;;;;;;;;;;;;;;31.82;37.64;100162.30;1452404;90;20285;-85
2022/08/06 09:03:26;;;;;;;;;;;;;;;31.66;36.46;100163.89;1448767;89;20828;-84
2022/08/06 09:05:53;;;;;;;;;;;;;;;31.78;36.81;100155.25;1456377;89;20270;-84
2022/08/06 09:08:20;;;;;;;;;;;;;;;31.91;36.52;100162.76;1456163;90;20270;-84
2022/08/06 09:10:48;;;;;;;;;;;;;;;31.88;35.02;100160.58;1450434;89;20233;-84
2022/08/06 09:13:15;;;;;;;;;;;;;;;31.95;34.45;100163.53;1449779;90;20306;-84
2022/08/06 09:15:42;;;;;;;;;;;;;;;31.94;34.87;100161.36;1451519;90;20264;-84
2022/08/06 09:18:09;;;;;;;;;;;;;;;32.02;35.18;100159.85;1456756;90;20805;-84
2022/08/06 09:20:36;;;;;;;;;;;;;;;32.03;33.33;100159.56;1452531;90;20330;-84
2022/08/06 09:23:03;;;;;;;;;;;;;;;32.07;32.94;100163.88;1458383;89;20278;-85
2022/08/06 09:25:40;;;;;;;;;;;;;;;32.20;34.80;100160.96;1451541;89;20219;-84
2022/08/06 09:28:11;;;;;;;;;;;;;;;32.38;34.70;100164.77;1452127;89;21042;-84
2022/08/06 09:30:39;;;;;;;;;;;;;;;32.62;34.77;100159.98;1453564;90;20834;-84
2022/08/06 09:33:12;;;;;;;;;;;;;;;32.68;33.32;100162.07;1447052;90;20360;-85
2022/08/06 09:35:39;;;;;;;;;;;;;;;32.84;33.56;100161.25;1445771;90;20403;-84
2022/08/06 09:38:11;;;;;;;;;;;;;;;32.99;34.26;100155.49;1451091;90;20338;-84
2022/08/06 09:40:37;;;;;;;;;;;;;;;33.15;33.81;100157.39;1454170;90;20791;-84
2022/08/06 09:43:04;;;;;;;;;;;;;;;33.05;33.11;100164.43;1454344;89;20285;-85
2022/08/06 09:45:31;;;;;;;;;;;;;;;33.03;32.81;100156.50;1452519;89;20414;-85
2022/08/06 09:48:06;;;;;;;;;;;;;;;32.99;33.84;100161.78;1451373;90;20865;-84
2022/08/06 09:50:42;;;;;;;;;;;;;;;33.31;34.79;100160.62;1461825;89;20330;-84
2022/08/06 09:53:10;;;;;;;;;;;;;;;33.54;32.33;100160.97;1459313;90;20441;-85
2022/08/06 09:55:37;;;;;;;;;;;;;;;33.68;32.86;100165.86;1454681;90;20847;-85
2022/08/06 09:58:04;;;;;;;;;;;;;;;33.89;33.40;100159.91;1448450;90;20360;-84
2022/08/06 10:00:34;;;;;;;;;;;;;;;33.74;30.27;100158.89;1447966;89;20425;-84
2022/08/06 10:03:04;;;;;;;;;;;;;;;33.57;30.18;100163.09;1451588;89;20271;-85
2022/08/06 10:05:32;;;;;;;;;;;;;;;33.55;31.10;100159.87;1446787;89;20329;-85
2022/08/06 10:08:16;;;;;;;;;;;;;;;33.77;32.79;100159.09;1453784;89;20820;-84
2022/08/06 10:10:46;;;;;;;;;;;;;;;33.67;30.80;100150.53;1453860;89;20375;-84
2022/08/06 10:13:20;;;;;;;;;;;;;;;33.83;30.90;100155.66;1455342;89;20286;-84
2022/08/06 10:15:50;;;;;;;;;;;;;;;33.88;30.97;100154.17;1452473;90;20755;-84
2022/08/06 10:18:36;;;;;;;;;;;;;;;33.60;29.71;100156.98;1445670;90;20285;-84
2022/08/06 10:21:08;;;;;;;;;;;;;;;33.25;31.05;100157.97;1452403;89;20285;-84
2022/08/06 10:23:38;;;;;;;;;;;;;;;33.46;32.31;100158.91;1458392;89;20292;-84
2022/08/06 10:26:07;;;;;;;;;;;;;;;33.63;31.30;100161.86;1453118;89;20939;-84
2022/08/06 10:28:36;;;;;;;;;;;;;;;33.83;31.93;100158.41;1446853;89;20374;-85
2022/08/06 10:31:07;;;;;;;;;;;;;;;33.89;31.94;100155.79;1451731;90;20509;-84
2022/08/06 10:33:41;;;;;;;;;;;;;;;33.81;31.02;100160.11;1456722;89;20300;-85
2022/08/06 10:36:10;;;;;;;;;;;;;;;33.82;30.49;100158.97;1453038;90;20429;-82
2022/08/06 10:38:39;;;;;;;;;;;;;;;33.99;32.08;100154.76;1452178;89;20814;-82
2022/08/06 10:41:09;;;;;;;;;;;;;;;33.85;30.83;100161.66;1453353;90;20293;-82
2022/08/06 10:43:37;;;;;;;;;;;;;;;34.03;31.28;100162.05;1453527;89;20359;-84
2022/08/06 10:46:10;;;;;;;;;;;;;;;34.08;30.61;100157.84;1455387;90;20337;-84
2022/08/06 10:48:38;;;;;;;;;;;;;;;34.12;31.73;100153.91;1452528;90;20352;-83
2022/08/06 10:51:08;;;;;;;;;;;;;;;34.08;31.36;100152.91;1444599;90;20345;-84
2022/08/06 10:53:37;;;;;;;;;;;;;;;34.31;31.05;100150.98;1456132;89;20386;-84
2022/08/06 10:56:06;;;;;;;;;;;;;;;34.49;31.62;100149.14;1453236;90;20330;-84
2022/08/06 10:58:34;;;;;;;;;;;;;;;34.50;30.35;100150.22;1448273;89;20255;-84
2022/08/06 11:01:05;;;;;;;;;;;;;;;34.77;31.06;100153.36;1448097;89;20396;-84
2022/08/06 11:03:55;;;;;;;;;;;;;;;34.50;28.79;100157.09;1454276;90;20292;-84
2022/08/06 11:06:43;;;;;;;;;;;;;;;34.70;29.48;100150.81;1448133;89;20338;-84
2022/08/06 11:09:29;;;;;;;;;;;;;;;34.66;28.96;100151.20;1446234;89;20293;-84
2022/08/06 11:12:21;;;;;;;;;;;;;;;34.73;30.21;100146.89;1450931;90;20308;-84
2022/08/06 11:14:49;;;;;;;;;;;;;;;34.75;29.03;100157.55;1455619;90;20867;-84
2022/08/06 11:17:17;;;;;;;;;;;;;;;34.91;29.68;100149.71;1443796;90;20278;-84
2022/08/06 11:19:49;;;;;;;;;;;;;;;34.94;28.31;100150.45;1443107;90;20286;-84
2022/08/06 11:22:37;;;;;;;;;;;;;;;34.90;28.63;100150.28;1448637;90;20243;-83
2022/08/06 11:25:08;;;;;;;;;;;;;;;34.68;27.06;100146.22;1444894;90;20242;-84
2022/08/06 11:28:01;;;;;;;;;;;;;;;34.78;27.93;100141.80;1447306;90;20426;-84
2022/08/06 11:30:42;;;;;;;;;;;;;;;34.61;28.33;100148.59;1446613;90;20396;-84
2022/08/06 11:33:10;;;;;;;;;;;;;;;34.75;28.96;100143.81;1445123;90;20331;-85
2022/08/06 11:35:39;;;;;;;;;;;;;;;34.97;28.44;100145.69;1439345;90;20829;-84
2022/08/06 11:38:08;;;;;;;;;;;;;;;35.13;29.55;100154.33;1450636;90;21248;-84
2022/08/06 11:40:57;;;;;;;;;;;;;;;35.21;28.34;100146.67;1447209;90;20285;-84
2022/08/06 11:43:49;;;;;;;;;;;;;;;35.46;28.54;100141.80;1440989;90;20286;-84
2022/08/06 11:46:27;;;;;;;;;;;;;;;35.57;28.52;100138.20;1445732;90;20293;-84
2022/08/06 11:49:06;;;;;;;;;;;;;;;35.62;27.45;100137.22;1445438;90;20354;-84
2022/08/06 11:51:47;;;;;;;;;;;;;;;35.12;27.22;100136.22;1447074;90;20397;-84
2022/08/06 11:54:23;;;;;;;;;;;;;;;35.09;27.00;100134.11;1447728;90;20322;-84
2022/08/06 11:57:09;;;;;;;;;;;;;;;35.20;27.63;100136.81;1445460;90;20338;-84
2022/08/06 11:59:58;;;;;;;;;;;;;;;35.28;27.58;100136.03;1449137;90;20747;-84
2022/08/06 12:02:46;;;;;;;;;;;;;;;34.75;27.71;100128.69;1443505;90;20301;-83
2022/08/06 12:05:19;;;;;;;;;;;;;;;34.81;28.24;100102.69;1444782;90;20264;-84
2022/08/06 12:07:49;;;;;;;;;;;;;;;35.03;28.22;100121.84;1450357;90;20688;-84
2022/08/06 12:10:18;;;;;;;;;;;;;;;35.23;27.08;100123.80;1448026;89;20397;-83
2022/08/06 12:12:46;;;;;;;;;;;;;;;35.06;27.41;100122.37;1444117;90;20426;-84
2022/08/06 12:15:19;;;;;;;;;;;;;;;34.96;29.10;100123.43;1426920;90;20301;-83
2022/08/06 12:18:00;;;;;;;;;;;;;;;34.78;30.28;100124.73;1448463;90;20309;-84
2022/08/06 12:20:34;;;;;;;;;;;;;;;34.80;31.24;100123.06;1441082;90;20220;-84
2022/08/06 12:23:05;;;;;;;;;;;;;;;34.64;31.28;100123.22;1450922;90;20385;-84
2022/08/06 12:25:38;;;;;;;;;;;;;;;34.73;31.29;100126.81;1451966;90;20316;-84
2022/08/06 12:28:10;;;;;;;;;;;;;;;34.80;31.57;100119.75;1446620;90;20278;-83
2022/08/06 12:30:52;;;;;;;;;;;;;;;34.73;32.26;100113.91;1442610;90;20235;-84
2022/08/06 12:33:20;;;;;;;;;;;;;;;34.66;32.47;100120.98;1453858;90;20278;-84
2022/08/06 12:35:57;;;;;;;;;;;;;;;34.31;31.84;100123.52;1443212;90;20331;-84
2022/08/06 12:38:27;;;;;;;;;;;;;;;34.18;32.56;100133.42;1446564;90;20314;-83
2022/08/06 12:40:57;;;;;;;;;;;;;;;34.20;32.37;100122.15;1456243;90;20285;-84
2022/08/06 12:43:25;;;;;;;;;;;;;;;34.23;32.78;100118.77;1441034;90;20353;-83
2022/08/06 12:46:02;;;;;;;;;;;;;;;34.20;32.28;100126.27;1450097;90;20741;-84
2022/08/06 12:48:29;;;;;;;;;;;;;;;34.43;32.92;100126.48;1445298;90;20257;-84
2022/08/06 12:51:08;;;;;;;;;;;;;;;34.59;32.38;100127.74;1452965;90;20293;-83
2022/08/06 12:53:41;;;;;;;;;;;;;;;34.79;32.54;100126.95;1451242;90;20307;-83
2022/08/06 12:56:10;;;;;;;;;;;;;;;34.62;31.75;100139.23;1452450;90;20338;-83
2022/08/06 12:58:38;;;;;;;;;;;;;;;34.63;32.31;100139.48;1448722;90;20293;-83